Terminal Aerodrome Forecast
Issued by NWS Wichita, KS

Home | Current Version | Previous Version | Text Only | Print | Product List | Glossary Off
Versions: 1 2 3 4 5 6 7 8 9 10 11 12 13 14 15 16 17

000
FTUS43 KICT 281721
TAFICT
TAF
KICT 281721Z 2818/2918 22012KT P6SM SCT040 SCT100
     FM290100 18004KT P6SM VCSH SCT050
     FM290700 36009KT P6SM FEW040=

USA.gov is the U.S. government's official web portal to all federal, state and local government web resources and services.